Time;durP1;ratioP1;P1;durP2;ratioP2;P2;SDS_P1;SDS_P2;PMS_P1;PMS_P2;Temp;Humidity;BMP_temperature;BMP_pressure;BME280_temperature;BME280_humidity;BME280_pressure;Samples;Min_cycle;Max_cycle;Signal;HPM_P1;HPM_P2
2023/09/08 00:00:18;;;;;;;;;26.33;22.67;;;;;23.03;89.33;101432.66;5111700;27;45932;-74
2023/09/08 00:02:43;;;;;;;;;21.33;21.33;;;;;23.00;89.76;101432.94;5106320;27;45632;-73
2023/09/08 00:05:10;;;;;;;;;22.33;20.67;;;;;22.92;88.45;101421.94;5106841;27;45231;-73
2023/09/08 00:07:35;;;;;;;;;19.33;19.33;;;;;;;;5105825;27;45403;-74
2023/09/08 00:10:00;;;;;;;;;22.67;20.33;;;;;22.92;89.99;101430.03;5109429;27;45365;-74
2023/09/08 00:12:26;;;;;;;;;19.33;18.67;;;;;;;;5116797;27;45344;-74
2023/09/08 00:14:51;;;;;;;;;21.67;21.00;;;;;22.91;89.81;101433.72;5113117;27;45580;-74
2023/09/08 00:17:16;;;;;;;;;19.33;16.33;;;;;22.89;88.61;101432.16;5120839;27;45355;-73
2023/09/08 00:19:42;;;;;;;;;20.33;18.33;;;;;22.81;89.42;101422.91;5122646;27;45423;-74
2023/09/08 00:22:07;;;;;;;;;24.67;21.33;;;;;22.87;87.65;101432.31;5102421;27;45406;-73
2023/09/08 00:24:33;;;;;;;;;19.33;18.67;;;;;22.79;88.06;101422.19;5101859;27;45614;-74
2023/09/08 00:26:58;;;;;;;;;19.67;19.00;;;;;22.81;90.04;101427.44;5120355;27;45307;-73
2023/09/08 00:29:24;;;;;;;;;22.00;20.00;;;;;22.73;90.15;101421.88;5122657;27;45609;-73
2023/09/08 00:31:49;;;;;;;;;18.33;16.33;;;;;22.71;90.53;101419.31;5117214;27;45459;-74
2023/09/08 00:34:14;;;;;;;;;19.33;15.67;;;;;22.74;90.39;101432.50;5110621;27;45467;-74
2023/09/08 00:36:39;;;;;;;;;18.67;16.00;;;;;22.70;90.55;101433.78;5110080;27;45384;-73
2023/09/08 00:39:05;;;;;;;;;21.00;21.00;;;;;22.70;91.40;101438.34;5112631;27;45385;-74
2023/09/08 00:41:30;;;;;;;;;17.50;17.50;;;;;22.67;91.31;101436.75;5121968;27;45357;-73
2023/09/08 00:43:55;;;;;;;;;17.00;15.00;;;;;22.59;90.48;101427.59;5111336;27;46367;-73
2023/09/08 00:46:21;;;;;;;;;22.33;18.67;;;;;22.54;90.28;101427.16;5101541;27;45231;-73
2023/09/08 00:48:46;;;;;;;;;22.33;19.00;;;;;22.59;89.16;101435.69;5101190;27;45338;-73
2023/09/08 00:51:12;;;;;;;;;17.00;16.00;;;;;22.57;88.68;101437.66;5099909;27;45584;-74
2023/09/08 00:53:37;;;;;;;;;19.00;16.00;;;;;22.53;91.02;101431.69;5106863;27;45332;-74
2023/09/08 00:56:04;;;;;;;;;24.33;19.33;;;;;22.54;90.79;101441.50;5113125;27;45273;-73
2023/09/08 00:58:29;;;;;;;;;20.67;18.67;;;;;22.52;89.70;101439.88;5102285;27;45403;-74
2023/09/08 01:00:57;;;;;;;;;18.33;17.33;;;;;22.46;87.29;101424.25;5100729;27;45283;-74
2023/09/08 01:03:23;;;;;;;;;20.67;19.33;;;;;22.53;88.62;101430.81;5118325;27;46831;-74
2023/09/08 01:05:49;;;;;;;;;18.67;16.33;;;;;22.57;89.77;101430.44;5109982;27;45339;-73
2023/09/08 01:08:15;;;;;;;;;18.67;18.67;;;;;22.56;91.11;101430.56;5106627;27;45358;-73
2023/09/08 01:10:41;;;;;;;;;17.00;17.00;;;;;22.49;89.88;101421.28;5109555;27;45224;-73
2023/09/08 01:13:07;;;;;;;;;25.67;21.00;;;;;22.54;90.26;101432.53;5114539;27;45305;-73
2023/09/08 01:15:33;;;;;;;;;15.00;15.00;;;;;22.47;91.22;101425.97;5112034;27;45360;-74
2023/09/08 01:17:58;;;;;;;;;21.33;20.00;;;;;22.42;91.71;101415.56;5114850;27;45483;-74
2023/09/08 01:20:42;;;;;;;;;19.67;19.67;;;;;22.37;92.02;101415.13;5104433;27;45544;-74
2023/09/08 01:23:21;;;;;;;;;24.00;20.67;;;;;22.38;92.50;101424.09;5110715;27;47203;-74
2023/09/08 01:25:57;;;;;;;;;21.67;17.67;;;;;22.34;92.75;101423.50;5115028;27;45449;-74
2023/09/08 01:28:23;;;;;;;;;18.67;18.67;;;;;22.24;93.29;101418.03;5119247;27;45416;-74
2023/09/08 01:30:50;;;;;;;;;19.00;16.67;;;;;22.25;94.29;101425.13;5124526;27;45280;-73
2023/09/08 01:33:16;;;;;;;;;17.67;17.67;;;;;22.18;94.17;101421.28;5122395;27;46288;-74
2023/09/08 01:35:41;;;;;;;;;15.33;15.33;;;;;22.11;94.00;101411.13;5115145;27;45405;-73
2023/09/08 01:38:07;;;;;;;;;21.33;20.67;;;;;22.15;93.93;101429.59;5102510;27;45497;-73
2023/09/08 01:40:32;;;;;;;;;20.67;18.00;;;;;22.11;94.95;101433.56;5124743;27;45333;-74
2023/09/08 01:42:57;;;;;;;;;19.67;19.67;;;;;22.05;95.60;101426.00;5120756;27;46220;-73
2023/09/08 01:45:23;;;;;;;;;18.33;16.67;;;;;21.98;95.30;101413.16;5106272;27;44691;-74
2023/09/08 01:47:48;;;;;;;;;19.00;18.33;;;;;22.03;95.62;101425.25;5119476;27;45432;-73
2023/09/08 01:50:15;;;;;;;;;19.67;18.33;;;;;22.00;96.36;101424.66;5103500;27;45743;-73
2023/09/08 01:52:40;;;;;;;;;19.67;18.33;;;;;21.92;95.87;101417.25;5101785;27;45331;-73
2023/09/08 01:55:07;;;;;;;;;20.00;18.00;;;;;21.95;96.24;101422.38;5103157;27;45508;-73
2023/09/08 01:57:32;;;;;;;;;17.67;15.00;;;;;21.87;96.91;101419.44;5100680;27;45358;-74
2023/09/08 01:59:58;;;;;;;;;18.00;16.67;;;;;21.90;97.45;101426.41;5100323;27;45508;-74
2023/09/08 02:02:23;;;;;;;;;18.33;18.33;;;;;21.85;98.07;101426.78;5100003;27;45552;-73
2023/09/08 02:04:48;;;;;;;;;18.33;18.33;;;;;21.81;97.62;101419.94;5100109;27;45295;-74
2023/09/08 02:07:14;;;;;;;;;20.00;18.00;;;;;21.80;99.26;101418.22;5101647;27;45464;-74
2023/09/08 02:09:39;;;;;;;;;20.67;19.33;;;;;21.79;99.75;101424.63;5109793;27;45298;-74
2023/09/08 02:12:05;;;;;;;;;18.00;18.00;;;;;21.73;98.93;101417.03;5098536;27;47428;-74
2023/09/08 02:14:30;;;;;;;;;19.67;19.67;;;;;21.75;98.97;101429.41;5101417;27;45532;-74
2023/09/08 02:16:56;;;;;;;;;20.33;18.67;;;;;21.70;99.22;101430.75;5120662;27;45663;-74
2023/09/08 02:19:22;;;;;;;;;20.67;18.00;;;;;21.66;100.00;101427.47;5101676;27;45256;-74
2023/09/08 02:21:47;;;;;;;;;19.67;19.67;;;;;21.62;100.00;101431.41;5104933;27;46053;-74
2023/09/08 02:24:13;;;;;;;;;20.00;16.33;;;;;21.66;100.00;101437.41;5112070;27;45359;-73
2023/09/08 02:26:39;;;;;;;;;19.67;17.33;;;;;21.58;100.00;101424.56;5099897;27;45696;-74
2023/09/08 02:29:04;;;;;;;;;16.67;16.33;;;;;21.59;100.00;101433.50;5113002;27;45640;-73
2023/09/08 02:31:30;;;;;;;;;21.33;19.00;;;;;21.57;100.00;101433.63;5112654;27;45298;-74
2023/09/08 02:33:55;;;;;;;;;24.33;19.00;;;;;21.53;100.00;101431.34;5099651;27;45479;-73
2023/09/08 02:36:27;;;;;;;;;18.00;17.33;;;;;21.52;100.00;101438.53;5103536;27;45669;-74
2023/09/08 02:38:53;;;;;;;;;13.67;12.00;;;;;21.53;100.00;101442.09;5114200;27;45584;-73
2023/09/08 02:41:19;;;;;;;;;19.67;18.67;;;;;21.47;100.00;101439.88;5114950;27;45279;-74
2023/09/08 02:43:44;;;;;;;;;21.33;19.33;;;;;21.46;100.00;101441.75;5099691;27;45522;-74
2023/09/08 02:46:09;;;;;;;;;23.00;20.33;;;;;21.47;100.00;101448.81;5102336;27;45328;-74
2023/09/08 02:48:35;;;;;;;;;22.33;19.00;;;;;21.43;100.00;101441.16;5113240;27;45270;-73
2023/09/08 02:51:00;;;;;;;;;22.67;18.00;;;;;21.44;100.00;101437.44;5106220;27;46558;-74
2023/09/08 02:53:28;;;;;;;;;19.33;19.33;;;;;21.36;100.00;101435.41;5108829;27;45358;-74
2023/09/08 02:55:54;;;;;;;;;22.33;20.67;;;;;21.39;100.00;101445.91;5105398;27;45322;-74
2023/09/08 02:58:19;;;;;;;;;17.67;17.33;;;;;21.31;100.00;101429.53;5119878;27;45418;-73
2023/09/08 03:00:45;;;;;;;;;20.33;18.00;;;;;21.29;100.00;101435.06;5118143;27;46612;-73
2023/09/08 03:03:10;;;;;;;;;20.67;17.67;;;;;21.34;100.00;101448.13;5110261;27;45440;-73
2023/09/08 03:05:36;;;;;;;;;21.33;18.00;;;;;21.29;100.00;101440.44;5100353;27;45367;-74
2023/09/08 03:08:02;;;;;;;;;21.67;21.67;;;;;21.26;100.00;101440.69;5111752;27;45485;-73
2023/09/08 03:10:28;;;;;;;;;18.00;18.00;;;;;21.26;100.00;101431.75;5099026;27;45473;-74
2023/09/08 03:12:54;;;;;;;;;20.33;20.33;;;;;21.27;100.00;101439.69;5101893;27;45504;-73
2023/09/08 03:15:20;;;;;;;;;20.33;18.33;;;;;21.25;100.00;101438.13;5109407;27;45373;-73
2023/09/08 03:17:46;;;;;;;;;21.00;18.67;;;;;21.19;100.00;101436.78;5105680;27;45385;-73
2023/09/08 03:20:13;;;;;;;;;19.00;18.00;;;;;21.21;100.00;101439.34;5105682;27;46287;-73
2023/09/08 03:22:38;;;;;;;;;19.00;17.67;;;;;21.13;100.00;101428.38;5117083;27;45525;-73
2023/09/08 03:25:04;;;;;;;;;18.67;18.67;;;;;21.12;100.00;101426.63;5106215;27;45416;-73
2023/09/08 03:27:29;;;;;;;;;16.67;15.33;;;;;21.17;100.00;101435.22;5106154;27;45550;-74
2023/09/08 03:29:55;;;;;;;;;27.00;25.33;;;;;21.16;100.00;101439.72;5107193;27;45501;-73
2023/09/08 03:32:20;;;;;;;;;23.00;21.00;;;;;21.07;100.00;101423.44;5112214;27;45417;-73
2023/09/08 03:34:45;;;;;;;;;24.67;22.67;;;;;21.07;100.00;101426.13;5120438;27;45563;-74
2023/09/08 03:37:11;;;;;;;;;22.33;21.00;;;;;21.06;100.00;101421.72;5103289;27;45499;-74
2023/09/08 03:39:36;;;;;;;;;23.33;22.33;;;;;21.10;100.00;101437.53;5102743;27;46077;-73
2023/09/08 03:42:02;;;;;;;;;24.00;22.67;;;;;21.04;100.00;101424.53;5104717;27;45499;-74
2023/09/08 03:44:28;;;;;;;;;24.33;22.33;;;;;21.07;100.00;101435.03;5116813;27;45462;-74
2023/09/08 03:46:53;;;;;;;;;24.00;23.67;;;;;20.99;100.00;101431.28;5116873;27;45393;-74
2023/09/08 03:49:19;;;;;;;;;23.33;22.00;;;;;21.06;100.00;101435.19;5105808;27;45801;-73
2023/09/08 03:51:44;;;;;;;;;21.67;20.33;;;;;21.04;100.00;101426.38;5118016;27;45306;-74
2023/09/08 03:54:09;;;;;;;;;25.00;23.67;;;;;21.02;100.00;101434.56;5116488;27;45462;-74
2023/09/08 03:56:35;;;;;;;;;27.00;24.67;;;;;20.97;100.00;101423.34;5117491;27;47807;-74
2023/09/08 03:59:00;;;;;;;;;24.00;24.00;;;;;20.99;100.00;101436.66;5117249;27;45197;-73
2023/09/08 04:01:25;;;;;;;;;24.67;23.33;;;;;20.89;100.00;101420.41;5114682;27;45223;-74
2023/09/08 04:03:51;;;;;;;;;24.00;24.00;;;;;20.90;100.00;101416.75;5120771;27;45477;-73
2023/09/08 04:06:16;;;;;;;;;25.00;24.00;;;;;20.95;100.00;101430.66;5120976;27;45571;-74
2023/09/08 04:08:41;;;;;;;;;25.33;23.00;;;;;20.89;100.00;101420.41;5110074;27;45324;-73
2023/09/08 04:11:07;;;;;;;;;18.67;18.67;;;;;20.90;100.00;101424.81;5102656;27;45401;-74
2023/09/08 04:13:32;;;;;;;;;30.00;27.67;;;;;20.84;100.00;101424.44;5104463;27;45505;-73
2023/09/08 04:15:57;;;;;;;;;24.00;24.00;;;;;20.83;100.00;101422.72;5109066;27;45398;-74
2023/09/08 04:18:23;;;;;;;;;26.67;25.00;;;;;20.88;100.00;101429.44;5102148;27;46868;-73
2023/09/08 04:20:48;;;;;;;;;26.33;23.67;;;;;20.83;100.00;101425.41;5115644;27;45320;-74
2023/09/08 04:23:13;;;;;;;;;25.00;24.33;;;;;20.83;100.00;101431.66;5101730;27;45305;-74
2023/09/08 04:25:39;;;;;;;;;27.00;24.00;;;;;20.79;100.00;101425.66;5118202;27;47287;-74
2023/09/08 04:28:04;;;;;;;;;24.00;23.00;;;;;20.77;100.00;101421.41;5121974;27;45356;-73
2023/09/08 04:30:30;;;;;;;;;24.00;22.67;;;;;20.76;100.00;101425.03;5114389;27;45394;-73
2023/09/08 04:32:55;;;;;;;;;30.00;26.33;;;;;20.77;100.00;101430.31;5122305;27;45459;-73
2023/09/08 04:35:20;;;;;;;;;22.67;22.00;;;;;20.78;100.00;101429.31;5112867;27;47093;-74
2023/09/08 04:37:46;;;;;;;;;28.33;24.00;;;;;20.74;100.00;101427.03;5108563;27;45475;-73
2023/09/08 04:40:11;;;;;;;;;28.00;25.00;;;;;20.70;100.00;101422.84;5120681;27;45355;-73
2023/09/08 04:42:36;;;;;;;;;25.33;24.67;;;;;20.72;100.00;101428.94;5120992;27;45283;-74
2023/09/08 04:45:02;;;;;;;;;25.67;24.67;;;;;20.74;100.00;101438.59;5106319;27;45305;-74
2023/09/08 04:47:27;;;;;;;;;22.00;21.00;;;;;20.70;100.00;101434.47;5101724;27;46391;-74
2023/09/08 04:49:52;;;;;;;;;30.33;25.00;;;;;20.70;100.00;101431.78;5100584;27;45273;-73
2023/09/08 04:52:18;;;;;;;;;24.00;22.00;;;;;20.69;100.00;101438.13;5104225;27;45570;-73
2023/09/08 04:54:43;;;;;;;;;26.67;23.67;;;;;20.70;100.00;101439.84;5103719;27;45359;-73
2023/09/08 04:57:08;;;;;;;;;35.67;26.67;;;;;20.61;100.00;101420.91;5116207;27;45453;-74
2023/09/08 04:59:36;;;;;;;;;26.33;25.33;;;;;20.61;100.00;101435.19;5101482;27;45307;-73
2023/09/08 05:02:02;;;;;;;;;26.67;23.00;;;;;20.68;100.00;101443.63;5114450;27;45499;-74
2023/09/08 05:04:27;;;;;;;;;27.33;26.00;;;;;20.67;100.00;101436.53;5108190;27;45531;-74
2023/09/08 05:06:53;;;;;;;;;24.00;21.33;;;;;20.59;100.00;101426.38;5118706;27;45480;-74
2023/09/08 05:09:18;;;;;;;;;29.00;26.00;;;;;20.66;100.00;101440.19;5114523;27;45446;-74
2023/09/08 05:11:43;;;;;;;;;20.00;20.00;;;;;20.62;100.00;101442.28;5101187;27;45358;-73
2023/09/08 05:14:09;;;;;;;;;26.00;26.00;;;;;20.65;100.00;101438.47;5108779;27;45278;-73
2023/09/08 05:16:44;;;;;;;;;25.67;24.67;;;;;20.61;100.00;101429.81;5117396;27;46633;-75
2023/09/08 05:19:10;;;;;;;;;23.67;22.67;;;;;20.58;100.00;101419.28;5112590;27;45568;-76
2023/09/08 05:21:35;;;;;;;;;26.00;22.33;;;;;20.64;100.00;101440.34;5102810;27;45592;-76
2023/09/08 05:24:00;;;;;;;;;30.33;26.00;;;;;20.58;100.00;101426.53;5109641;27;45548;-76
2023/09/08 05:26:26;;;;;;;;;27.67;25.00;;;;;20.69;100.00;101439.94;5117646;27;46956;-76
2023/09/08 05:28:51;;;;;;;;;25.33;24.67;;;;;20.70;100.00;101441.69;5107576;27;45254;-76
2023/09/08 05:31:16;;;;;;;;;28.33;25.33;;;;;20.63;100.00;101433.25;5119509;27;45399;-76
2023/09/08 05:33:42;;;;;;;;;23.33;23.33;;;;;20.62;100.00;101431.53;5106325;27;45485;-76
2023/09/08 05:36:07;;;;;;;;;30.67;25.67;;;;;20.74;100.00;101451.22;5105541;27;45508;-75
2023/09/08 05:38:32;;;;;;;;;24.67;22.33;;;;;20.66;100.00;101437.50;5101822;27;45409;-76
2023/09/08 05:40:58;;;;;;;;;25.00;24.67;;;;;20.70;100.00;101438.97;5104447;27;45337;-75
2023/09/08 05:43:25;;;;;;;;;27.00;24.33;;;;;20.73;100.00;101441.44;5107604;27;45327;-75
2023/09/08 05:45:50;;;;;;;;;28.33;25.67;;;;;20.78;100.00;101450.84;5110356;27;46398;-75
2023/09/08 05:48:16;;;;;;;;;25.00;23.33;;;;;20.77;100.00;101442.91;5108196;27;45359;-75
2023/09/08 05:50:41;;;;;;;;;29.00;22.67;;;;;20.81;100.00;101455.09;5106508;27;45460;-75
2023/09/08 05:53:07;;;;;;;;;22.33;21.67;;;;;20.80;100.00;101450.72;5106980;27;45595;-76
2023/09/08 05:55:32;;;;;;;;;24.67;22.33;;;;;20.79;100.00;101446.31;5109013;27;48286;-75
2023/09/08 05:57:57;;;;;;;;;24.00;20.67;;;;;20.93;100.00;101461.34;5101480;27;47467;-74
2023/09/08 06:00:23;;;;;;;;;27.33;26.33;;;;;20.90;100.00;101457.09;5112249;27;45514;-75
2023/09/08 06:02:48;;;;;;;;;22.00;22.00;;;;;20.96;100.00;101456.59;5106880;27;45418;-74
2023/09/08 06:05:13;;;;;;;;;24.00;24.00;;;;;21.02;100.00;101463.28;5110650;27;47854;-75
2023/09/08 06:07:39;;;;;;;;;25.67;22.67;;;;;20.98;100.00;101454.63;5115421;27;45485;-74
2023/09/08 06:10:04;;;;;;;;;24.00;23.67;;;;;21.00;100.00;101449.13;5106020;27;45418;-74
2023/09/08 06:12:30;;;;;;;;;27.67;26.00;;;;;21.13;100.00;101458.81;5110575;27;45488;-74
2023/09/08 06:14:55;;;;;;;;;23.67;23.67;;;;;21.19;100.00;101463.69;5104969;27;46940;-75
2023/09/08 06:17:20;;;;;;;;;29.67;26.00;;;;;21.24;100.00;101461.47;5103472;27;45340;-75
2023/09/08 06:19:46;;;;;;;;;24.67;20.67;;;;;21.27;100.00;101461.22;5117292;27;45382;-74
2023/09/08 06:22:11;;;;;;;;;28.67;27.33;;;;;21.39;100.00;101467.44;5111077;27;45232;-74
2023/09/08 06:24:36;;;;;;;;;30.33;27.33;;;;;21.45;100.00;101466.09;5112959;27;45295;-73
2023/09/08 06:27:02;;;;;;;;;28.67;22.67;;;;;21.54;100.00;101468.00;5104737;27;45402;-75
2023/09/08 06:29:27;;;;;;;;;25.00;23.67;;;;;21.59;100.00;101460.44;5101373;27;45335;-74
2023/09/08 06:31:53;;;;;;;;;27.33;25.00;;;;;21.69;100.00;101461.38;5104780;27;45406;-73
2023/09/08 06:34:21;;;;;;;;;29.00;24.33;;;;;21.74;100.00;101461.84;5112753;27;45394;-73
2023/09/08 06:36:47;;;;;;;;;26.00;24.33;;;;;21.83;100.00;101467.31;5107650;27;45434;-74
2023/09/08 06:39:12;;;;;;;;;21.33;21.33;;;;;21.90;100.00;101469.50;5102467;27;45361;-73
2023/09/08 06:41:38;;;;;;;;;26.67;22.67;;;;;21.91;100.00;101461.31;5119212;27;45552;-74
2023/09/08 06:44:03;;;;;;;;;25.00;22.00;;;;;22.03;100.00;101470.19;5118454;27;45336;-73
2023/09/08 06:46:29;;;;;;;;;26.00;23.67;;;;;22.05;100.00;101465.56;5098298;27;45381;-74
2023/09/08 06:48:54;;;;;;;;;26.00;23.67;;;;;22.11;100.00;101459.63;5103210;27;45498;-74
2023/09/08 06:51:19;;;;;;;;;26.67;25.67;;;;;22.21;100.00;101468.66;5101684;27;45500;-74
2023/09/08 06:53:55;;;;;;;;;25.67;24.00;;;;;22.33;100.00;101475.69;5115707;27;45380;-74
2023/09/08 06:56:20;;;;;;;;;23.33;23.00;;;;;22.40;100.00;101473.31;5102833;27;45592;-74
2023/09/08 06:58:45;;;;;;;;;24.67;23.33;;;;;22.45;100.00;101468.38;5103297;27;45553;-74
2023/09/08 07:01:11;;;;;;;;;26.00;23.67;;;;;22.53;100.00;101465.88;5114770;27;45797;-73
2023/09/08 07:03:36;;;;;;;;;29.33;27.33;;;;;22.65;99.94;101478.28;5116691;27;48119;-74
2023/09/08 07:06:02;;;;;;;;;24.33;22.67;;;;;22.70;99.12;101463.47;5119066;27;45571;-74
2023/09/08 07:08:27;;;;;;;;;28.67;26.33;;;;;22.82;100.00;101483.97;5098734;27;45569;-74
2023/09/08 07:10:53;;;;;;;;;28.67;26.33;;;;;22.88;99.50;101469.06;5106118;27;45232;-75
2023/09/08 07:13:19;;;;;;;;;27.67;23.33;;;;;22.97;98.67;101483.59;5104089;27;46128;-74
2023/09/08 07:15:44;;;;;;;;;24.67;24.00;;;;;23.05;96.82;101475.66;5105661;27;45430;-74
2023/09/08 07:18:10;;;;;;;;;25.33;25.33;;;;;23.10;94.87;101470.75;5098166;27;45326;-74
2023/09/08 07:20:35;;;;;;;;;21.67;21.67;;;;;23.21;96.41;101486.81;5101618;27;45472;-74
2023/09/08 07:23:00;;;;;;;;;26.00;26.00;;;;;23.30;95.71;101483.28;5122296;27;45404;-74
2023/09/08 07:25:26;;;;;;;;;26.00;25.67;;;;;23.38;94.48;101482.59;5120212;27;45318;-74
2023/09/08 07:27:53;;;;;;;;;24.00;24.00;;;;;23.40;94.64;101469.81;5109571;27;45363;-74
2023/09/08 07:30:19;;;;;;;;;34.33;26.67;;;;;23.54;92.56;101489.22;5105170;27;45464;-74
2023/09/08 07:32:44;;;;;;;;;21.00;19.67;;;;;23.66;90.48;101492.63;5110784;27;45630;-74
2023/09/08 07:35:13;;;;;;;;;30.00;27.33;;;;;23.72;91.02;101481.28;5111351;27;45628;-74
2023/09/08 07:37:40;;;;;;;;;27.33;25.67;;;;;23.80;89.18;101481.44;5100333;27;46238;-74
2023/09/08 07:40:06;;;;;;;;;27.00;25.67;;;;;23.94;88.45;101488.25;5114466;27;45294;-74
2023/09/08 07:42:31;;;;;;;;;35.00;27.33;;;;;23.99;87.24;101472.47;5110517;27;45396;-74
2023/09/08 07:44:57;;;;;;;;;25.33;22.67;;;;;24.12;90.93;101484.72;5110944;27;45565;-74
2023/09/08 07:47:22;;;;;;;;;34.00;25.67;;;;;24.11;90.45;101469.50;5104487;27;45472;-74
2023/09/08 07:49:48;;;;;;;;;25.00;23.67;;;;;24.28;88.73;101478.75;5111218;27;45610;-74
2023/09/08 07:52:13;;;;;;;;;30.67;25.00;;;;;24.40;86.26;101487.56;5101774;27;46613;-74
2023/09/08 07:54:38;;;;;;;;;38.00;30.00;;;;;24.46;85.30;101481.56;5107814;27;45330;-74
2023/09/08 07:57:04;;;;;;;;;29.00;26.67;;;;;24.60;83.45;101481.97;5102474;27;45382;-74
2023/09/08 07:59:29;;;;;;;;;31.67;25.67;;;;;24.64;83.48;101461.72;5118948;27;45563;-74
2023/09/08 08:01:55;;;;;;;;;28.33;26.00;;;;;24.88;83.87;101485.63;5107075;27;45549;-74
2023/09/08 08:04:20;;;;;;;;;24.67;23.67;;;;;25.01;81.48;101488.84;5104500;27;45333;-74
2023/09/08 08:06:47;;;;;;;;;24.33;24.33;;;;;25.08;81.69;101476.41;5115524;27;45498;-74
2023/09/08 08:09:12;;;;;;;;;33.00;26.33;;;;;25.27;81.04;101483.59;5111587;27;45445;-74
2023/09/08 08:11:38;;;;;;;;;21.00;21.00;;;;;25.36;79.86;101483.53;5104414;27;45218;-74
2023/09/08 08:14:03;;;;;;;;;31.33;27.33;;;;;25.44;81.29;101460.25;5116464;27;45293;-75
2023/09/08 08:16:28;;;;;;;;;28.00;23.00;;;;;25.64;78.78;101472.72;5107085;27;45281;-75
2023/09/08 08:18:54;;;;;;;;;31.33;28.67;;;;;25.76;77.77;101472.34;5111230;27;45455;-74
2023/09/08 08:21:19;;;;;;;;;23.33;20.67;;;;;25.97;75.79;101476.59;5111268;27;45464;-74
2023/09/08 08:23:44;;;;;;;;;25.67;22.67;;;;;26.08;76.35;101470.94;5115822;27;45270;-74
2023/09/08 08:26:10;;;;;;;;;24.67;23.00;;;;;26.27;75.78;101485.22;5111927;27;45319;-75
2023/09/08 08:28:35;;;;;;;;;28.00;25.00;;;;;26.42;73.23;101485.47;5110803;27;45283;-74
2023/09/08 08:31:00;;;;;;;;;25.00;23.00;;;;;26.51;73.23;101476.38;5105313;27;45996;-74
2023/09/08 08:33:26;;;;;;;;;25.00;24.00;;;;;26.65;73.79;101467.66;5111617;27;45419;-74
2023/09/08 08:35:53;;;;;;;;;23.33;22.33;;;;;26.92;71.97;101493.84;5108131;27;46035;-74
2023/09/08 08:38:18;;;;;;;;;22.00;20.00;;;;;27.07;69.63;101496.78;5117279;27;45566;-74
2023/09/08 08:40:44;;;;;;;;;29.33;24.67;;;;;27.18;69.62;101489.22;5114902;27;45630;-74
2023/09/08 08:43:09;;;;;;;;;25.67;21.67;;;;;27.35;70.17;101480.13;5107411;27;45292;-75
2023/09/08 08:45:37;;;;;;;;;25.33;22.00;;;;;27.54;67.97;101486.31;5111538;27;45385;-74
2023/09/08 08:48:04;;;;;;;;;24.33;20.33;;;;;27.72;66.69;101487.03;5107331;27;45241;-74
2023/09/08 08:50:31;;;;;;;;;27.00;21.33;;;;;27.86;66.10;101489.09;5105854;27;47021;-74
2023/09/08 08:52:56;;;;;;;;;21.33;20.33;;;;;28.03;65.85;101485.38;5103123;27;45347;-74
2023/09/08 08:55:28;;;;;;;;;26.33;22.33;;;;;28.17;65.22;101481.19;5107221;27;45535;-74
2023/09/08 08:57:54;;;;;;;;;20.67;18.33;;;;;28.37;65.94;101494.25;5104226;27;45364;-75
2023/09/08 09:00:20;;;;;;;;;20.67;20.67;;;;;28.47;63.81;101480.47;5111977;27;45421;-74
2023/09/08 09:02:49;;;;;;;;;23.33;22.00;;;;;28.66;63.85;101493.75;5115602;27;45706;-74
2023/09/08 09:05:14;;;;;;;;;22.67;22.00;;;;;28.80;60.92;101481.28;5101943;27;45349;-74
2023/09/08 09:07:43;;;;;;;;;22.33;21.00;;;;;28.87;63.00;101474.13;5115460;27;45459;-74
2023/09/08 09:10:09;;;;;;;;;22.67;19.67;;;;;29.07;60.75;101491.75;5104050;27;46108;-74
2023/09/08 09:12:37;;;;;;;;;22.00;18.00;;;;;29.27;61.46;101494.97;5108674;27;45310;-75
2023/09/08 09:15:04;;;;;;;;;14.33;12.33;;;;;29.42;62.91;101490.44;5101719;27;45448;-75
2023/09/08 09:17:30;;;;;;;;;20.67;15.00;;;;;29.50;57.95;101482.25;5101110;27;45542;-75
2023/09/08 09:20:20;;;;;;;;;15.33;14.67;;;;;29.65;58.54;101485.03;5105303;27;46585;-75
2023/09/08 09:22:46;;;;;;;;;14.33;14.33;;;;;29.74;58.58;101475.81;5102575;27;45432;-75
2023/09/08 09:25:23;;;;;;;;;18.00;14.33;;;;;29.80;58.11;101461.44;5113634;27;45305;-75
2023/09/08 09:27:53;;;;;;;;;14.00;13.33;;;;;30.03;57.33;101478.69;5109521;27;45816;-75
2023/09/08 09:30:18;;;;;;;;;17.33;16.67;;;;;29.99;56.67;101460.97;5112170;27;46892;-74
2023/09/08 09:32:44;;;;;;;;;16.00;15.00;;;;;30.19;55.12;101472.25;5100976;27;45301;-75
2023/09/08 09:35:09;;;;;;;;;17.33;15.33;;;;;30.21;54.97;101468.28;5113305;27;45352;-75
2023/09/08 09:37:35;;;;;;;;;17.00;14.67;;;;;30.32;54.25;101467.88;5108628;27;50980;-74
2023/09/08 09:40:01;;;;;;;;;15.00;15.00;;;;;30.44;52.25;101471.88;5110334;27;47902;-74
2023/09/08 09:42:28;;;;;;;;;18.67;13.00;;;;;30.59;56.11;101473.78;5114963;27;45367;-74
2023/09/08 09:44:53;;;;;;;;;12.67;12.67;;;;;30.66;55.90;101472.00;5111823;27;45380;-75
2023/09/08 09:47:20;;;;;;;;;12.33;11.33;;;;;30.80;56.07;101476.63;5107523;27;45509;-74
2023/09/08 09:49:46;;;;;;;;;16.00;12.00;;;;;30.89;53.04;101478.25;5100465;27;45392;-75
2023/09/08 09:52:13;;;;;;;;;14.00;13.00;;;;;30.96;52.86;101474.59;5112634;27;45407;-75
2023/09/08 09:54:41;;;;;;;;;12.00;11.33;;;;;31.03;55.00;101477.41;5101769;27;45244;-75
2023/09/08 09:57:06;;;;;;;;;15.67;13.00;;;;;31.07;52.31;101462.34;5105090;27;45501;-75
2023/09/08 09:59:33;;;;;;;;;13.67;12.67;;;;;31.15;53.30;101464.94;5103268;27;46600;-75
2023/09/08 10:01:59;;;;;;;;;13.33;13.00;;;;;31.26;51.26;101469.94;5105769;27;45675;-75
2023/09/08 10:04:25;;;;;;;;;13.67;12.00;;;;;31.34;53.58;101475.31;5118595;27;45427;-75
2023/09/08 10:06:52;;;;;;;;;12.00;12.00;;;;;31.38;49.25;101465.66;5108515;27;45440;-75
2023/09/08 10:09:19;;;;;;;;;12.33;12.33;;;;;31.44;48.55;101466.81;5105443;27;45270;-75
2023/09/08 10:11:48;;;;;;;;;12.00;11.00;;;;;31.48;49.29;101459.91;5107414;27;45469;-74
2023/09/08 10:14:18;;;;;;;;;14.00;13.00;;;;;31.49;49.96;101462.44;5103840;27;45430;-75
2023/09/08 10:16:49;;;;;;;;;14.00;10.33;;;;;31.48;48.83;101463.47;5111915;27;45224;-74
2023/09/08 10:19:16;;;;;;;;;15.33;13.33;;;;;31.52;50.64;101468.59;5101118;27;45698;-75
2023/09/08 10:21:45;;;;;;;;;12.33;10.33;;;;;31.56;52.27;101465.28;5102693;27;45490;-74
2023/09/08 10:24:28;;;;;;;;;12.33;11.00;;;;;31.55;49.97;101454.53;5108506;27;45355;-75
2023/09/08 10:26:56;;;;;;;;;13.00;12.67;;;;;31.62;49.92;101463.66;5110140;27;45502;-75
2023/09/08 10:29:23;;;;;;;;;11.33;9.00;;;;;31.63;48.71;101459.91;5112191;27;45556;-74
2023/09/08 10:31:48;;;;;;;;;10.67;10.67;;;;;31.63;49.43;101463.47;5103407;27;45413;-75
2023/09/08 10:34:15;;;;;;;;;13.67;12.67;;;;;31.62;47.67;101458.19;5101645;27;45455;-75
2023/09/08 10:36:40;;;;;;;;;15.33;13.67;;;;;31.61;49.47;101465.53;5111572;27;45571;-75
2023/09/08 10:39:41;;;;;;;;;13.00;12.00;;;;;31.60;51.39;101443.88;5110258;27;46336;-75
2023/09/08 10:42:20;;;;;;;;;11.33;10.33;;;;;31.73;49.70;101463.16;5045537;28;46896;-75
2023/09/08 10:44:49;;;;;;;;;14.33;10.67;;;;;31.76;49.07;101458.16;5098999;27;45438;-75
2023/09/08 10:47:24;;;;;;;;;13.67;12.00;;;;;31.69;47.93;101451.75;5101183;27;45299;-76
2023/09/08 10:49:53;;;;;;;;;12.00;12.00;;;;;31.77;47.23;101451.66;5101591;27;45481;-76
2023/09/08 10:52:21;;;;;;;;;15.33;13.00;;;;;31.79;47.14;101454.19;5116865;27;45535;-75
2023/09/08 10:54:55;;;;;;;;;13.67;11.00;;;;;31.87;48.35;101457.63;5107495;27;45429;-75
2023/09/08 10:57:23;;;;;;;;;14.00;12.33;;;;;31.89;50.37;101454.69;5106086;27;45304;-75
2023/09/08 10:59:57;;;;;;;;;10.67;10.33;;;;;31.92;48.48;101446.09;5108577;27;47997;-75
2023/09/08 11:02:44;;;;;;;;;12.33;10.33;;;;;31.82;47.60;101427.28;5107265;27;45370;-74